CheckWX is a tool to help pilots better visualize weather data.  It is not intended as a substitute for an official pre-flight weather briefing.

12:58:01 UTC

KACK TAF
Nantucket Memorial Airport
Nantucket, Massachusetts, USA
KACK 191124Z 1912/2012 27003KT 4SM BR SCT004 OVC025 FM191500 24007KT P6SM BKN027 FM192200 29005KT P6SM BKN090 FM200200 35005KT P6SM BKN030 FM200600 36007KT 5SM BR VCSH BKN015 FM201000 36008KT 5SM BR OVC020

Nov-19@
12:00 UTC

Nov-19 @ 12:00 UTC

Nov-19@
15:00 UTC

Nov-19 @ 15:00 UTC

KACK 191124Z 1912/2012 27003KT 4SM BR SCT004 OVC025
Wind
  • 270° at 3 KTS
Conditions
Mist
Cloud Levels
  • Scattered at 400' AGL
  • Overcast at 2,500' AGL

Nov-19@
15:00 UTC

Nov-19 @ 15:00 UTC

Nov-19@
22:00 UTC

Nov-19 @ 22:00 UTC

FM191500 24007KT P6SM BKN027

From

From Standard forecast or significant change

Wind
  • 240° at 7 KTS
Cloud Levels
  • Broken at 2,700' AGL

Nov-19@
22:00 UTC

Nov-19 @ 22:00 UTC

Nov-20@
02:00 UTC

Nov-20 @ 02:00 UTC

FM192200 29005KT P6SM BKN090

From

From Standard forecast or significant change

Wind
  • 290° at 5 KTS
Cloud Levels
  • Broken at 9,000' AGL

Nov-20@
02:00 UTC

Nov-20 @ 02:00 UTC

Nov-20@
06:00 UTC

Nov-20 @ 06:00 UTC

FM200200 35005KT P6SM BKN030

From

From Standard forecast or significant change

Wind
  • 350° at 5 KTS
Cloud Levels
  • Broken at 3,000' AGL

Nov-20@
06:00 UTC

Nov-20 @ 06:00 UTC

Nov-20@
10:00 UTC

Nov-20 @ 10:00 UTC

FM200600 36007KT 5SM BR VCSH BKN015

From

From Standard forecast or significant change

Wind
  • 360° at 7 KTS
Conditions
Mist
Cloud Levels
  • Broken at 1,500' AGL

Nov-20@
10:00 UTC

Nov-20 @ 10:00 UTC

Nov-20@
12:00 UTC

Nov-20 @ 12:00 UTC

FM201000 36008KT 5SM BR OVC020

From

From Standard forecast or significant change

Wind
  • 360° at 8 KTS
Conditions
Mist
Cloud Levels
  • Overcast at 2,000' AGL